Time;durP1;ratioP1;P1;durP2;ratioP2;P2;SDS_P1;SDS_P2;PMS_P1;PMS_P2;Temp;Humidity;BMP_temperature;BMP_pressure;BME280_temperature;BME280_humidity;BME280_pressure;Samples;Min_cycle;Max_cycle;Signal;HPM_P1;HPM_P2
2023/03/30 00:02:17;;;;;;;19.80;6.95;;;;;;;10.86;100.00;163402.88;5073936;28;20032;-62
2023/03/30 00:04:43;;;;;;;17.35;6.13;;;;;;;10.87;100.00;163405.59;5072144;28;20052;-62
2023/03/30 00:07:09;;;;;;;10.20;4.00;;;;;;;10.91;100.00;163417.75;5073653;28;20148;-62
2023/03/30 00:09:41;;;;;;;4.90;3.92;;;;;;;10.92;100.00;163419.06;5071956;28;20043;-62
2023/03/30 00:12:07;;;;;;;10.02;5.07;;;;;;;10.82;100.00;163392.09;5072989;28;20108;-61
2023/03/30 00:14:36;;;;;;;7.35;4.35;;;;;;;10.87;100.00;163405.59;5072174;28;20041;-62
2023/03/30 00:17:02;;;;;;;11.35;5.45;;;;;;;10.92;100.00;163419.06;5073355;28;20089;-62
2023/03/30 00:19:28;;;;;;;11.45;4.70;;;;;;;10.86;100.00;163402.88;5071326;28;20114;-62
2023/03/30 00:21:53;;;;;;;10.15;5.00;;;;;;;10.87;100.00;163406.91;5073006;28;20475;-61
2023/03/30 00:24:19;;;;;;;9.38;4.93;;;;;;;10.81;100.00;163390.72;5072110;28;20422;-62
2023/03/30 00:26:44;;;;;;;7.50;5.25;;;;;;;10.85;100.00;163400.19;5072925;28;20039;-63
2023/03/30 00:29:10;;;;;;;20.05;4.65;;;;;;;10.83;100.00;163394.81;5071811;28;20012;-63
2023/03/30 00:31:36;;;;;;;9.20;5.05;;;;;;;10.81;100.00;163390.72;5073017;28;20021;-63
2023/03/30 00:34:01;;;;;;;5.47;3.70;;;;;;;10.83;100.00;163394.81;5072541;28;20594;-63
2023/03/30 00:36:26;;;;;;;10.02;4.82;;;;;;;10.81;100.00;163389.41;5071470;28;20041;-63
2023/03/30 00:38:52;;;;;;;13.23;4.63;;;;;;;10.78;100.00;163384.00;5073150;28;20047;-63
2023/03/30 00:41:17;;;;;;;8.55;3.90;;;;;;;10.73;100.00;163370.50;5071047;28;20047;-64
2023/03/30 00:43:59;;;;;;;6.13;4.57;;;;;;;10.76;100.00;163378.56;5073297;28;20434;-64
2023/03/30 00:46:25;;;;;;;12.07;4.10;;;;;;;10.67;100.00;163354.31;5071698;28;20044;-61
2023/03/30 00:48:51;;;;;;;9.55;5.68;;;;;;;10.76;100.00;163377.25;5072468;28;20623;-62
2023/03/30 00:51:18;;;;;;;12.98;5.00;;;;;;;10.69;100.00;163359.66;5071302;28;20036;-62
2023/03/30 00:53:48;;;;;;;9.90;5.90;;;;;;;10.63;100.00;163343.50;5072580;28;20033;-62
2023/03/30 00:56:16;;;;;;;11.07;4.10;;;;;;;10.88;100.00;163408.28;5071030;28;20110;-62
2023/03/30 00:58:43;;;;;;;14.18;5.43;;;;;;;10.98;100.00;163435.31;5071485;28;20043;-62
2023/03/30 01:01:12;;;;;;;11.73;4.72;;;;;;;11.08;100.00;163460.97;5071160;28;20076;-62
2023/03/30 01:03:44;;;;;;;;;;;;;;;11.14;100.00;163475.78;5073040;28;20072;-62
2023/03/30 01:06:11;;;;;;;15.77;5.10;;;;;;;11.02;100.00;163446.09;5071093;28;20295;-62
2023/03/30 01:08:37;;;;;;;7.95;3.28;;;;;;;11.00;100.00;163439.34;5072649;28;20020;-62
2023/03/30 01:11:05;;;;;;;10.13;4.43;;;;;;;10.99;100.00;163437.97;5070126;28;20040;-62
2023/03/30 01:13:35;;;;;;;6.90;5.43;;;;;;;10.84;100.00;163397.47;5072543;28;20484;-62
2023/03/30 01:16:25;;;;;;;5.60;3.67;;;;;;;10.95;100.00;163428.53;5070675;28;20037;-62
2023/03/30 01:19:34;;;;;;;7.57;4.25;;;;;;;10.95;100.00;163427.19;5071625;28;20056;-62
2023/03/30 01:22:11;;;;;;;8.57;4.10;;;;;;;10.94;100.00;163424.50;5070748;28;20131;-61
2023/03/30 01:25:06;;;;;;;8.75;5.53;;;;;;;10.98;100.00;163435.31;5070762;28;20040;-62
2023/03/30 01:28:03;;;;;;;11.07;4.47;;;;;;;11.05;100.00;163454.22;5072071;28;20024;-62
2023/03/30 01:30:47;;;;;;;11.15;5.00;;;;;;;11.16;100.00;163481.19;5070478;28;20289;-62
2023/03/30 01:33:27;;;;;;;8.38;4.55;;;;;;;11.23;100.00;163500.09;5071692;28;20016;-63
2023/03/30 01:36:33;;;;;;;5.65;3.97;;;;;;;11.30;100.00;163519.00;5069977;28;20097;-62
2023/03/30 01:39:17;;;;;;;5.45;3.20;;;;;;;11.05;100.00;163452.84;5071874;28;20399;-62
2023/03/30 01:41:58;;;;;;;10.35;4.15;;;;;;;11.16;100.00;163481.19;5070134;28;20045;-63
2023/03/30 01:44:46;;;;;;;5.88;3.58;;;;;;;11.19;100.00;163489.31;5068936;28;20036;-63
2023/03/30 01:47:59;;;;;;;7.53;4.18;;;;;;;11.34;100.00;163529.84;5052044;28;20028;-63
2023/03/30 01:50:35;;;;;;;12.57;4.13;;;;;;;11.42;100.00;163551.44;5049782;28;20124;-64
2023/03/30 01:53:14;;;;;;;7.55;3.42;;;;;;;11.45;100.00;163556.81;5050958;28;20039;-63
2023/03/30 01:55:54;;;;;;;9.25;4.60;;;;;;;11.41;100.00;163548.75;5030232;28;20052;-64
2023/03/30 01:58:36;;;;;;;10.70;4.28;;;;;;;11.40;100.00;163544.66;5031679;28;20033;-63
2023/03/30 02:01:03;;;;;;;4.90;4.43;;;;;;;11.43;100.00;163552.78;5038445;28;20415;-63
2023/03/30 02:03:31;;;;;;;8.70;5.22;;;;;;;11.35;100.00;163531.16;5051200;28;20028;-63
2023/03/30 02:06:17;;;;;;;;;;;;;;;11.48;100.00;163564.94;5050528;28;20155;-64
2023/03/30 02:08:45;;;;;;;9.77;4.28;;;;;;;11.47;100.00;163562.22;5050531;28;20382;-63
2023/03/30 02:11:10;;;;;;;12.20;5.70;;;;;;;11.49;100.00;163567.63;5049415;28;20048;-64
2023/03/30 02:13:38;;;;;;;11.45;4.53;;;;;;;11.49;100.00;163567.63;5051211;28;20392;-63
2023/03/30 02:16:11;;;;;;;6.55;2.92;;;;;;;11.52;100.00;163577.09;5049747;28;20052;-64
2023/03/30 02:18:37;;;;;;;6.93;4.57;;;;;;;11.59;100.00;163594.63;5050576;28;20036;-63
2023/03/30 02:21:03;;;;;;;6.97;3.75;;;;;;;11.61;100.00;163600.03;5049430;28;20049;-63
2023/03/30 02:23:34;;;;;;;12.77;4.47;;;;;;;11.58;100.00;163591.91;5051234;28;20035;-63
2023/03/30 02:25:59;;;;;;;5.68;3.47;;;;;;;11.53;100.00;163579.81;5049294;28;20090;-63
2023/03/30 02:28:25;;;;;;;9.20;4.05;;;;;;;11.59;100.00;163594.63;5051277;28;20464;-63
2023/03/30 02:30:50;;;;;;;7.00;3.95;;;;;;;11.58;100.00;163591.91;5049439;28;20048;-63
2023/03/30 02:33:27;;;;;;;7.60;4.22;;;;;;;11.54;100.00;163581.13;5050434;28;20024;-64
2023/03/30 02:36:04;;;;;;;6.88;3.33;;;;;;;11.48;100.00;163566.25;5049396;28;20519;-63
2023/03/30 02:38:56;;;;;;;7.38;3.65;;;;;;;11.39;100.00;163543.31;5051142;28;20087;-61
2023/03/30 02:41:45;;;;;;;3.83;3.20;;;;;;;11.35;100.00;163532.53;5048462;28;20558;-61
2023/03/30 02:44:20;;;;;;;4.57;3.50;;;;;;;11.34;100.00;163529.84;5050926;28;20492;-61
2023/03/30 02:47:26;;;;;;;8.98;3.90;;;;;;;11.35;100.00;163532.53;5068299;28;21044;-61
2023/03/30 02:50:28;;;;;;;7.78;3.97;;;;;;;11.26;100.00;163508.22;5069197;28;20500;-62
2023/03/30 02:53:22;;;;;;;5.82;4.40;;;;;;;11.13;100.00;163474.44;5070477;28;20055;-62
2023/03/30 02:56:29;;;;;;;6.07;3.95;;;;;;;10.92;100.00;163419.06;5068625;28;20083;-62
2023/03/30 02:59:03;;;;;;;6.73;3.33;;;;;;;10.87;100.00;163405.59;5069991;28;20040;-62
2023/03/30 03:01:37;;;;;;;5.97;4.05;;;;;;;10.79;100.00;163385.38;5068704;28;20499;-63
2023/03/30 03:04:05;;;;;;;11.80;4.10;;;;;;;10.72;100.00;163367.78;5070540;28;20091;-63
2023/03/30 03:06:33;;;;;;;14.48;4.68;;;;;;;10.72;100.00;163367.78;5069288;28;20036;-64
2023/03/30 03:08:59;;;;;;;5.00;3.63;;;;;;;10.75;100.00;163375.91;5070113;28;20035;-63
2023/03/30 03:11:25;;;;;;;7.57;4.07;;;;;;;10.77;100.00;163381.28;5069022;28;20492;-63
2023/03/30 03:13:50;;;;;;;12.50;5.22;;;;;;;10.79;100.00;163385.38;5070395;28;20020;-63
2023/03/30 03:16:16;;;;;;;6.97;3.95;;;;;;;10.81;100.00;163389.41;5068432;28;20037;-63
2023/03/30 03:18:42;;;;;;;11.07;3.95;;;;;;;10.84;100.00;163397.47;5070312;28;20024;-62
2023/03/30 03:21:08;;;;;;;4.90;3.35;;;;;;;10.84;100.00;163397.47;5070031;28;20380;-62
2023/03/30 03:23:35;;;;;;;8.30;5.05;;;;;;;10.76;100.00;163378.56;5074526;28;20028;-62
2023/03/30 03:26:01;;;;;;;5.32;4.82;;;;;;;10.73;100.00;163370.50;5072705;28;20033;-62
2023/03/30 03:28:27;;;;;;;6.57;3.47;;;;;;;10.74;100.00;163371.84;5074687;28;20112;-62
2023/03/30 03:30:53;;;;;;;4.85;3.78;;;;;;;10.83;100.00;163394.81;5072366;28;20435;-63
2023/03/30 03:33:21;;;;;;;12.15;5.03;;;;;;;10.93;100.00;163421.78;5073860;28;20029;-62
2023/03/30 03:35:47;;;;;;;12.57;3.72;;;;;;;10.99;100.00;163437.97;5072774;28;20129;-62
2023/03/30 03:38:13;;;;;;;17.95;4.65;;;;;;;11.09;100.00;163465.00;5074280;28;20056;-62
2023/03/30 03:40:39;;;;;;;9.57;5.22;;;;;;;11.18;100.00;163486.59;5072233;28;20530;-62
2023/03/30 03:43:05;;;;;;;5.65;4.03;;;;;;;11.23;100.00;163500.09;5073910;28;20035;-62
2023/03/30 03:45:31;;;;;;;3.97;3.28;;;;;;;11.48;100.00;163564.94;5072588;28;20064;-62
2023/03/30 03:47:56;;;;;;;3.40;2.80;;;;;;;11.67;100.00;163616.22;5073730;28;20044;-62
2023/03/30 03:50:21;;;;;;;8.45;4.30;;;;;;;11.85;100.00;163663.50;5072538;28;20040;-63
2023/03/30 03:52:47;;;;;;;11.10;4.28;;;;;;;11.94;100.00;163686.50;5073641;28;20024;-62
2023/03/30 03:55:12;;;;;;;5.20;3.53;;;;;;;12.02;100.00;163708.19;5072161;28;20036;-62
2023/03/30 03:57:39;;;;;;;6.50;3.58;;;;;;;12.10;100.00;163728.41;5073596;28;20028;-62
2023/03/30 04:00:14;;;;;;;3.17;2.80;;;;;;;12.17;100.00;163746.00;5072134;28;20069;-62
2023/03/30 04:02:40;;;;;;;4.55;3.03;;;;;;;12.16;100.00;163744.63;5073222;28;20519;-63
2023/03/30 04:05:06;;;;;;;3.30;2.55;;;;;;;12.17;100.00;163746.00;5071983;28;20041;-63
2023/03/30 04:07:33;;;;;;;5.25;3.30;;;;;;;12.17;100.00;163746.00;5073431;28;20536;-62
2023/03/30 04:09:58;;;;;;;8.23;3.13;;;;;;;12.13;100.00;163735.16;5071527;28;20063;-63
2023/03/30 04:12:24;;;;;;;11.63;4.15;;;;;;;12.27;100.00;163771.66;5071899;28;20483;-61
2023/03/30 04:14:49;;;;;;;5.40;2.75;;;;;;;12.25;100.00;163767.59;5069013;28;20036;-61
2023/03/30 04:17:14;;;;;;;7.40;3.35;;;;;;;12.24;100.00;163764.91;5072535;28;20032;-61
2023/03/30 04:19:40;;;;;;;7.82;4.50;;;;;;;12.22;100.00;163759.50;5071107;28;20044;-61
2023/03/30 04:22:06;;;;;;;5.35;3.08;;;;;;;12.20;100.00;163754.09;5072310;28;20120;-61
2023/03/30 04:24:34;;;;;;;5.40;3.55;;;;;;;12.19;100.00;163751.38;5064322;28;20491;-61
2023/03/30 04:27:00;;;;;;;3.40;2.72;;;;;;;12.18;100.00;163750.03;5061921;28;20055;-58
2023/03/30 04:29:25;;;;;;;6.03;3.35;;;;;;;12.16;100.00;163744.63;5071564;28;20127;-60
2023/03/30 04:31:51;;;;;;;3.05;2.50;;;;;;;12.15;100.00;163740.59;5071622;28;20396;-59
2023/03/30 04:34:20;;;;;;;6.63;3.40;;;;;;;12.13;100.00;163736.56;5070583;28;20021;-58
2023/03/30 04:36:49;;;;;;;4.45;3.85;;;;;;;12.06;100.00;163717.63;5072122;28;20025;-59
2023/03/30 04:39:17;;;;;;;8.68;2.85;;;;;;;11.97;100.00;163694.63;5071509;28;20040;-59
2023/03/30 04:41:44;;;;;;;3.97;3.13;;;;;;;11.85;100.00;163662.19;5073167;28;20539;-59
2023/03/30 04:44:10;;;;;;;5.57;2.88;;;;;;;11.71;100.00;163627.06;5071500;28;20390;-59
2023/03/30 04:46:35;;;;;;;6.55;4.10;;;;;;;11.59;100.00;163594.63;5072617;28;20016;-59
2023/03/30 04:49:02;;;;;;;4.80;3.53;;;;;;;11.54;100.00;163581.13;5072692;28;20038;-59
2023/03/30 04:51:27;;;;;;;9.70;4.20;;;;;;;11.49;100.00;163567.63;5071243;28;20153;-59
2023/03/30 04:53:53;;;;;;;7.72;2.92;;;;;;;11.50;100.00;163570.34;5072042;28;20067;-58
2023/03/30 04:56:19;;;;;;;25.83;3.92;;;;;;;11.53;100.00;163578.41;5069779;28;20069;-58
2023/03/30 04:58:44;;;;;;;6.75;3.72;;;;;;;11.69;100.00;163621.66;5072391;28;20024;-58
2023/03/30 05:01:10;;;;;;;3.17;2.45;;;;;;;11.80;100.00;163648.69;5070810;28;20090;-58
2023/03/30 05:03:35;;;;;;;5.55;3.20;;;;;;;11.86;100.00;163666.22;5072644;28;20025;-58
2023/03/30 05:06:01;;;;;;;7.03;3.60;;;;;;;12.00;100.00;163702.75;5071058;28;20035;-59
2023/03/30 05:08:26;;;;;;;6.20;2.45;;;;;;;12.11;100.00;163729.75;5071989;28;20036;-58
2023/03/30 05:10:51;;;;;;;5.32;2.95;;;;;;;12.15;100.00;163740.59;5070936;28;20036;-58
2023/03/30 05:13:17;;;;;;;7.35;2.40;;;;;;;12.18;100.00;163748.66;5072307;28;20422;-59
2023/03/30 05:15:42;;;;;;;15.15;4.07;;;;;;;12.17;100.00;163746.00;5070632;28;20044;-59
2023/03/30 05:18:07;;;;;;;4.43;2.75;;;;;;;12.18;100.00;163748.66;5072079;28;20016;-58
2023/03/30 05:20:33;;;;;;;16.80;4.70;;;;;;;12.24;100.00;163764.91;5070884;28;20052;-58
2023/03/30 05:22:58;;;;;;;13.27;4.47;;;;;;;12.27;100.00;163773.00;5071733;28;20024;-59
2023/03/30 05:25:24;;;;;;;12.43;4.50;;;;;;;12.26;100.00;163768.97;5070899;28;20083;-59
2023/03/30 05:27:50;;;;;;;15.32;4.38;;;;;;;12.21;100.00;163758.13;5072077;28;20016;-59
2023/03/30 05:30:15;;;;;;;4.03;3.60;;;;;;;12.17;100.00;163746.00;5070322;28;20047;-59
2023/03/30 05:32:40;;;;;;;5.20;2.80;;;;;;;12.14;100.00;163737.88;5071727;28;20047;-59
2023/03/30 05:35:06;;;;;;;7.95;3.45;;;;;;;12.10;100.00;163727.09;5068734;28;20037;-59
2023/03/30 05:37:32;;;;;;;8.63;2.55;;;;;;;12.04;100.00;163713.56;5069725;28;20134;-59
2023/03/30 05:39:57;;;;;;;5.90;4.32;;;;;;;12.00;100.00;163702.75;5068342;28;20471;-58
2023/03/30 05:42:22;;;;;;;3.22;2.35;;;;;;;12.01;100.00;163705.47;5069904;28;20033;-59
2023/03/30 05:44:48;;;;;;;8.18;4.00;;;;;;;12.00;100.00;163702.75;5067729;28;20627;-59
2023/03/30 05:47:15;;;;;;;5.47;3.22;;;;;;;11.99;100.00;163700.06;5070506;28;20020;-59
2023/03/30 05:49:40;;;;;;;4.78;3.85;;;;;;;11.89;100.00;163672.97;5070525;28;20032;-59
2023/03/30 05:52:06;;;;;;;7.35;3.45;;;;;;;11.83;100.00;163656.75;5069910;28;20529;-60
2023/03/30 05:54:31;;;;;;;4.47;2.53;;;;;;;11.79;100.00;163645.97;5069798;28;20056;-59
2023/03/30 05:56:57;;;;;;;12.98;4.82;;;;;;;11.79;100.00;163647.31;5071352;28;20074;-59
2023/03/30 05:59:22;;;;;;;10.20;3.67;;;;;;;11.82;100.00;163655.44;5069738;28;20039;-59
2023/03/30 06:01:48;;;;;;;11.15;4.65;;;;;;;11.69;100.00;163621.66;5069442;28;20024;-59
2023/03/30 06:04:14;;;;;;;8.95;4.82;;;;;;;11.74;100.00;163635.16;5065730;28;20101;-58
2023/03/30 06:06:40;;;;;;;3.83;3.30;;;;;;;11.66;100.00;163612.19;5051079;28;20092;-59
2023/03/30 06:09:06;;;;;;;14.93;4.55;;;;;;;11.63;100.00;163605.47;5049453;28;20024;-59
2023/03/30 06:11:31;;;;;;;4.80;3.88;;;;;;;11.62;100.00;163601.38;5051392;28;20021;-58
2023/03/30 06:13:57;;;;;;;10.15;4.05;;;;;;;11.61;100.00;163600.03;5050685;28;20387;-59
2023/03/30 06:16:23;;;;;;;10.55;3.70;;;;;;;11.58;100.00;163591.91;5049725;28;20037;-59
2023/03/30 06:18:48;;;;;;;6.47;3.63;;;;;;;11.58;100.00;163591.91;5050421;28;20484;-59
2023/03/30 06:21:13;;;;;;;5.47;3.30;;;;;;;11.56;100.00;163586.53;5067355;28;20047;-59
2023/03/30 06:23:40;;;;;;;5.72;3.08;;;;;;;11.54;100.00;163582.47;5071203;28;20024;-59
2023/03/30 06:26:06;;;;;;;6.10;3.40;;;;;;;11.59;100.00;163596.00;5069351;28;20079;-58
2023/03/30 06:28:31;;;;;;;8.80;3.28;;;;;;;11.55;100.00;163583.84;5066744;28;20063;-59
2023/03/30 06:30:57;;;;;;;4.78;3.33;;;;;;;11.57;100.00;163590.59;5063317;28;20504;-59
2023/03/30 06:33:24;;;;;;;7.85;3.63;;;;;;;11.54;100.00;163582.47;5050724;28;20029;-59
2023/03/30 06:35:51;;;;;;;13.77;4.90;;;;;;;11.55;100.00;163583.84;5049225;28;20048;-59
2023/03/30 06:38:18;;;;;;;10.27;4.47;;;;;;;11.53;100.00;163578.41;5050645;28;20072;-59
2023/03/30 06:40:44;;;;;;;10.38;5.90;;;;;;;11.54;100.00;163581.13;5049604;28;20041;-59
2023/03/30 06:43:17;;;;;;;15.43;4.28;;;;;;;11.60;100.00;163597.31;5069643;28;20028;-59
2023/03/30 06:45:47;;;;;;;6.63;2.95;;;;;;;11.62;100.00;163602.75;5069083;28;20111;-58
2023/03/30 06:48:13;;;;;;;8.93;4.07;;;;;;;11.69;100.00;163621.66;5069451;28;20415;-58
2023/03/30 06:50:39;;;;;;;13.80;4.68;;;;;;;11.74;100.00;163633.81;5069198;28;20036;-59
2023/03/30 06:53:04;;;;;;;5.10;3.10;;;;;;;11.83;100.00;163656.75;5069934;28;20103;-59
2023/03/30 06:55:30;;;;;;;6.85;4.43;;;;;;;11.99;100.00;163700.06;5069256;28;20047;-59
2023/03/30 06:57:55;;;;;;;9.68;5.55;;;;;;;12.08;100.00;163723.00;5070577;28;20031;-58
2023/03/30 07:00:21;;;;;;;5.25;2.85;;;;;;;12.29;100.00;163777.03;5068848;28;20036;-58
2023/03/30 07:02:46;;;;;;;11.13;3.55;;;;;;;12.36;100.00;163797.34;5070392;28;20025;-59
2023/03/30 07:05:14;;;;;;;9.00;4.35;;;;;;;12.34;100.00;163791.91;5069029;28;20037;-59
2023/03/30 07:07:40;;;;;;;14.30;5.28;;;;;;;12.35;100.00;163794.63;5070050;28;20480;-58
2023/03/30 07:10:09;;;;;;;5.70;3.42;;;;;;;12.32;100.00;163786.50;5069157;28;20064;-59
2023/03/30 07:12:35;;;;;;;9.95;3.58;;;;;;;12.30;100.00;163781.13;5070541;28;20032;-59
2023/03/30 07:15:01;;;;;;;8.50;6.05;;;;;;;12.26;100.00;163770.28;5068576;28;20103;-59
2023/03/30 07:17:26;;;;;;;11.70;3.95;;;;;;;12.24;100.00;163763.53;5070564;28;20032;-58
2023/03/30 07:19:52;;;;;;;8.32;4.05;;;;;;;12.21;100.00;163756.78;5066712;28;20045;-58
2023/03/30 07:22:17;;;;;;;11.23;4.15;;;;;;;12.26;100.00;163770.28;5068736;28;20029;-58
2023/03/30 07:24:43;;;;;;;9.38;5.80;;;;;;;12.24;100.00;163763.53;5068683;28;20487;-58
2023/03/30 07:27:09;;;;;;;6.90;4.03;;;;;;;12.15;100.00;163741.91;5069174;28;20051;-58
2023/03/30 07:29:35;;;;;;;5.97;4.03;;;;;;;12.17;100.00;163746.00;5066324;28;20037;-59
2023/03/30 07:32:02;;;;;;;6.65;3.40;;;;;;;12.25;100.00;163767.59;5062757;28;20060;-59
2023/03/30 07:34:28;;;;;;;12.73;4.45;;;;;;;12.11;100.00;163731.13;5056913;28;20052;-58
2023/03/30 07:36:53;;;;;;;7.13;3.63;;;;;;;11.96;100.00;163691.88;5068144;28;20101;-59
2023/03/30 07:39:19;;;;;;;10.85;5.63;;;;;;;12.13;100.00;163735.16;5069245;28;20036;-59
2023/03/30 07:41:45;;;;;;;8.32;3.60;;;;;;;12.27;100.00;163771.66;5070145;28;20016;-59
2023/03/30 07:44:10;;;;;;;9.88;4.07;;;;;;;12.30;100.00;163781.13;5068900;28;20028;-59
2023/03/30 07:46:35;;;;;;;9.13;3.72;;;;;;;12.34;100.00;163791.91;5070402;28;20375;-59
2023/03/30 07:49:01;;;;;;;5.40;3.83;;;;;;;12.44;100.00;163816.25;5070162;28;20028;-58
2023/03/30 07:51:27;;;;;;;9.30;4.13;;;;;;;12.51;100.00;163835.16;5068413;28;20048;-59
2023/03/30 07:53:52;;;;;;;20.20;5.30;;;;;;;12.64;100.00;163870.28;5058451;28;20025;-59
2023/03/30 07:56:17;;;;;;;12.52;3.95;;;;;;;12.64;100.00;163870.28;5046465;28;20044;-59
2023/03/30 07:58:43;;;;;;;8.18;4.43;;;;;;;12.61;100.00;163860.84;5047417;28;20468;-58
2023/03/30 08:01:09;;;;;;;8.40;4.90;;;;;;;12.52;100.00;163839.22;5058816;28;20099;-59
2023/03/30 08:03:35;;;;;;;9.35;4.95;;;;;;;12.45;100.00;163818.97;5067365;28;20031;-59
2023/03/30 08:06:05;;;;;;;9.02;4.57;;;;;;;12.49;100.00;163829.75;5067267;28;20032;-59
2023/03/30 08:08:32;;;;;;;12.65;5.70;;;;;;;12.66;100.00;163875.72;5073270;28;20028;-58
2023/03/30 08:10:58;;;;;;;8.85;4.30;;;;;;;12.93;100.00;163945.97;5071758;28;20041;-58
2023/03/30 08:13:23;;;;;;;8.25;4.90;;;;;;;13.53;100.00;164102.88;5073202;28;20082;-58
2023/03/30 08:15:49;;;;;;;13.38;3.88;;;;;;;13.97;100.00;164217.84;5071802;28;20040;-59
2023/03/30 08:18:15;;;;;;;16.23;4.15;;;;;;;14.04;100.00;164236.78;5072196;28;20028;-58
2023/03/30 08:20:41;;;;;;;7.38;3.08;;;;;;;14.18;100.00;164273.31;5071642;28;20044;-59
2023/03/30 08:23:08;;;;;;;6.90;3.13;;;;;;;14.03;100.00;164232.72;5073444;28;20248;-59
2023/03/30 08:25:35;;;;;;;10.38;4.22;;;;;;;13.88;100.00;164193.47;5071953;28;20059;-58
2023/03/30 08:28:01;;;;;;;10.15;3.58;;;;;;;14.11;100.00;164254.38;5073021;28;20077;-58
2023/03/30 08:30:27;;;;;;;8.48;3.33;;;;;;;14.88;100.00;164456.00;5071848;28;20041;-59
2023/03/30 08:32:52;;;;;;;18.98;4.05;;;;;;;15.33;100.00;164573.75;5073115;28;20021;-59
2023/03/30 08:35:18;;;;;;;9.27;4.28;;;;;;;14.90;100.00;164461.38;5071345;28;20040;-59
2023/03/30 08:37:44;;;;;;;12.27;4.75;;;;;;;14.41;100.00;164332.78;5072977;28;20032;-59
2023/03/30 08:40:14;;;;;;;11.88;5.13;;;;;;;13.68;100.00;164140.72;5071670;28;20044;-59
2023/03/30 08:43:19;;;;;;;19.35;5.40;;;;;;;13.52;100.00;164098.81;5072849;28;20475;-59
2023/03/30 08:45:45;;;;;;;15.93;5.90;;;;;;;13.48;100.00;164089.34;5071538;28;20032;-59
2023/03/30 08:48:17;;;;;;;10.10;4.70;;;;;;;13.48;100.00;164089.34;5073217;28;20509;-59
2023/03/30 08:50:51;;;;;;;7.82;3.50;;;;;;;13.17;100.00;164008.19;5071336;28;20407;-59
2023/03/30 08:53:16;;;;;;;9.70;3.65;;;;;;;13.38;100.00;164062.25;5072901;28;20025;-58
2023/03/30 08:55:48;;;;;;;9.43;4.03;;;;;;;13.58;100.00;164116.41;5071450;28;20102;-59
2023/03/30 08:58:21;;;;;;;9.40;4.65;;;;;;;13.55;100.00;164108.28;5071030;28;20373;-59
2023/03/30 09:00:57;;;;;;;12.82;6.00;;;;;;;13.35;100.00;164054.16;5071314;28;20041;-59
2023/03/30 09:03:32;;;;;;;12.43;4.75;;;;;;;13.22;100.00;164021.69;5072943;28;20031;-58
2023/03/30 09:06:22;;;;;;;12.02;4.78;;;;;;;13.38;100.00;164062.25;5070799;28;20037;-58
2023/03/30 09:08:48;;;;;;;12.93;5.32;;;;;;;13.61;100.00;164124.50;5072170;28;20032;-58
2023/03/30 09:11:22;;;;;;;14.82;3.55;;;;;;;13.88;100.00;164194.84;5071275;28;20032;-58
2023/03/30 09:13:49;;;;;;;18.75;5.85;;;;;;;13.51;100.00;164097.50;5072146;28;20048;-59
2023/03/30 09:16:41;;;;;;;13.80;5.38;;;;;;;13.18;100.00;164010.88;5071097;28;20047;-58
2023/03/30 09:19:16;;;;;;;9.30;3.88;;;;;;;13.51;100.00;164096.13;5069216;28;20084;-58
2023/03/30 09:21:42;;;;;;;21.13;6.43;;;;;;;13.62;100.00;164127.22;5072437;28;20028;-58
2023/03/30 09:24:15;;;;;;;18.15;4.63;;;;;;;13.69;100.00;164144.81;5070894;28;20016;-59
2023/03/30 09:27:27;;;;;;;17.17;5.60;;;;;;;13.49;100.00;164092.06;5072123;28;20478;-59
2023/03/30 09:29:57;;;;;;;17.15;5.75;;;;;;;13.68;100.00;164140.72;5048016;28;20455;-59
2023/03/30 09:32:37;;;;;;;15.73;5.97;;;;;;;13.74;100.00;164158.31;5049546;28;20036;-58
2023/03/30 09:35:23;;;;;;;14.23;3.70;;;;;;;13.78;100.00;164167.78;5062268;28;20044;-58
2023/03/30 09:37:49;;;;;;;23.10;4.93;;;;;;;13.58;100.00;164116.41;5071922;28;20016;-59
2023/03/30 09:40:53;;;;;;;16.13;4.85;;;;;;;13.36;100.00;164056.88;5070709;28;20037;-60
2023/03/30 09:43:30;;;;;;;12.38;4.10;;;;;;;13.05;100.00;163977.06;5051604;28;20071;-58
2023/03/30 09:45:58;;;;;;;17.92;4.00;;;;;;;13.09;100.00;163986.53;5035461;28;20116;-58
2023/03/30 09:48:23;;;;;;;11.75;3.83;;;;;;;13.18;100.00;164010.88;5031726;28;20021;-59
2023/03/30 09:50:48;;;;;;;15.77;4.18;;;;;;;13.27;100.00;164033.84;5030338;28;20565;-59
2023/03/30 09:53:25;;;;;;;12.40;5.05;;;;;;;13.18;100.00;164010.88;5031827;28;20416;-59
2023/03/30 09:55:59;;;;;;;18.92;6.25;;;;;;;13.46;100.00;164083.94;5029801;28;20419;-59
2023/03/30 09:58:28;;;;;;;15.63;5.75;;;;;;;13.67;100.00;164138.00;5031807;28;20030;-59
2023/03/30 10:01:13;;;;;;;9.85;4.22;;;;;;;13.26;100.00;164032.53;5029975;28;20045;-58
2023/03/30 10:03:41;;;;;;;16.58;4.18;;;;;;;13.30;100.00;164043.31;5031467;28;20025;-59
2023/03/30 10:06:08;;;;;;;9.40;3.45;;;;;;;13.25;100.00;164028.47;5029971;28;20029;-58
2023/03/30 10:08:42;;;;;;;10.52;3.28;;;;;;;12.87;100.00;163928.44;5031742;28;20036;-59
2023/03/30 10:11:08;;;;;;;26.05;6.35;;;;;;;12.77;100.00;163904.09;5029750;28;20033;-59
2023/03/30 10:13:41;;;;;;;13.07;5.38;;;;;;;12.63;100.00;163867.59;5031534;28;20396;-58
2023/03/30 10:16:16;;;;;;;10.10;4.15;;;;;;;12.50;100.00;163832.47;5029678;28;20038;-59
2023/03/30 10:18:43;;;;;;;9.63;4.80;;;;;;;12.94;100.00;163948.69;5030980;28;20026;-59
2023/03/30 10:21:11;;;;;;;16.02;6.45;;;;;;;13.69;100.00;164143.44;5039417;28;20044;-58
2023/03/30 10:23:41;;;;;;;15.95;4.55;;;;;;;14.31;100.00;164305.75;5051173;28;20031;-59
2023/03/30 10:26:18;;;;;;;22.67;5.97;;;;;;;14.72;100.00;164414.03;5065288;28;20495;-59
2023/03/30 10:29:01;;;;;;;16.52;4.40;;;;;;;15.15;100.00;164527.72;5070001;28;20054;-59
2023/03/30 10:31:26;;;;;;;18.75;4.50;;;;;;;15.62;100.00;164649.53;5068498;28;20066;-59
2023/03/30 10:33:56;;;;;;;16.20;4.47;;;;;;;15.95;100.00;164737.59;5069876;28;20444;-59
2023/03/30 10:36:28;;;;;;;11.05;3.30;;;;;;;15.75;100.00;164683.41;5067851;28;20399;-59
2023/03/30 10:38:53;;;;;;;11.15;4.38;;;;;;;15.57;100.00;164636.03;5069814;28;20067;-59
2023/03/30 10:41:22;;;;;;;16.55;4.78;;;;;;;15.31;100.00;164568.31;5069225;28;20063;-60
2023/03/30 10:43:50;;;;;;;14.73;4.75;;;;;;;15.26;100.00;164554.78;5070587;28;20037;-59
2023/03/30 10:46:22;;;;;;;16.35;4.90;;;;;;;15.34;100.00;164576.47;5068997;28;20044;-59
2023/03/30 10:48:51;;;;;;;11.52;4.55;;;;;;;15.19;100.00;164538.56;5070358;28;20036;-59
2023/03/30 10:51:41;;;;;;;16.45;6.38;;;;;;;15.34;100.00;164576.47;5069541;28;20040;-59
2023/03/30 10:54:32;;;;;;;14.63;4.88;;;;;;;15.45;100.00;164606.22;5069807;28;20475;-59
2023/03/30 10:57:12;;;;;;;15.85;5.38;;;;;;;15.03;100.00;164495.22;5070002;28;20028;-59
2023/03/30 10:59:55;;;;;;;13.23;5.13;;;;;;;15.22;100.00;164546.72;5068959;28;20032;-59
2023/03/30 11:02:45;;;;;;;20.33;6.07;;;;;;;15.68;100.00;164667.16;5070578;28;20056;-59
2023/03/30 11:05:43;;;;;;;12.32;5.57;;;;;;;16.17;100.00;164795.88;5069019;28;20036;-59
2023/03/30 11:08:16;;;;;;;33.85;7.47;;;;;;;16.09;100.00;164774.19;5057532;28;20487;-59
2023/03/30 11:10:47;;;;;;;16.73;4.10;;;;;;;15.28;100.00;164560.22;5051264;28;20047;-59
2023/03/30 11:13:20;;;;;;;11.75;5.40;;;;;;;15.02;100.00;164492.53;5050494;28;20028;-59
2023/03/30 11:15:52;;;;;;;14.77;4.75;;;;;;;14.75;100.00;164422.16;5048668;28;20033;-59
2023/03/30 11:18:42;;;;;;;20.30;7.43;;;;;;;14.91;100.00;164465.50;5049986;28;20017;-59
2023/03/30 11:21:13;;;;;;;18.13;5.57;;;;;;;14.46;100.00;164346.34;5048699;28;20114;-59
2023/03/30 11:23:53;;;;;;;16.33;5.40;;;;;;;14.49;100.00;164354.44;5049145;28;20640;-60
2023/03/30 11:26:34;;;;;;;10.88;4.07;;;;;;;14.65;100.00;164395.03;5048250;28;20041;-59
2023/03/30 11:29:17;;;;;;;20.40;5.68;;;;;;;14.54;100.00;164368.00;5049998;28;20101;-59
2023/03/30 11:31:52;;;;;;;12.65;4.20;;;;;;;14.37;100.00;164323.31;5029080;28;20056;-59